Time;durP1;ratioP1;P1;durP2;ratioP2;P2;SDS_P1;SDS_P2;PMS_P1;PMS_P2;Temp;Humidity;BMP_temperature;BMP_pressure;BME280_temperature;BME280_humidity;BME280_pressure;Samples;Min_cycle;Max_cycle;Signal;HPM_P1;HPM_P2
2022/06/16 00:02:04;;;;;;;5.37;4.87;;;;;;;21.91;45.69;156998.09;5071842;28;20988;-80
2022/06/16 00:04:31;;;;;;;5.83;5.07;;;;;;;21.91;46.42;156998.09;5070709;28;20869;-79
2022/06/16 00:06:59;;;;;;;5.60;5.10;;;;;;;21.90;46.65;156996.78;5070943;28;20517;-79
2022/06/16 00:09:28;;;;;;;6.57;5.03;;;;;;;21.87;45.86;156988.94;5065122;28;21009;-80
2022/06/16 00:11:55;;;;;;;5.67;5.17;;;;;;;21.84;45.96;156982.38;5053195;28;20399;-80
2022/06/16 00:14:27;;;;;;;5.57;5.07;;;;;;;21.81;45.85;156974.56;5053060;28;20435;-79
2022/06/16 00:16:54;;;;;;;6.00;5.40;;;;;;;21.77;46.14;156964.09;5067696;28;20435;-79
2022/06/16 00:19:21;;;;;;;5.77;5.27;;;;;;;21.76;47.09;156961.47;5056646;28;20487;-79
2022/06/16 00:21:48;;;;;;;7.27;5.97;;;;;;;21.73;47.21;156952.38;5084392;28;20442;-79
2022/06/16 00:24:15;;;;;;;5.57;5.00;;;;;;;21.72;47.28;156951.06;5093866;28;20843;-79
2022/06/16 00:26:43;;;;;;;5.63;5.23;;;;;;;21.68;47.46;156940.59;5064570;28;20445;-80
2022/06/16 00:29:10;;;;;;;6.83;6.23;;;;;;;21.68;47.48;156940.59;5054255;28;20454;-80
2022/06/16 00:31:37;;;;;;;5.73;5.23;;;;;;;21.67;47.88;156938.00;5071249;28;20425;-80
2022/06/16 00:34:04;;;;;;;5.93;5.33;;;;;;;21.67;47.61;156938.00;5060075;28;20561;-79
2022/06/16 00:36:32;;;;;;;5.73;5.23;;;;;;;21.66;48.37;156935.38;5071762;28;20449;-80
2022/06/16 00:38:58;;;;;;;6.50;6.00;;;;;;;21.66;48.02;156934.06;5070919;28;20481;-80
2022/06/16 00:41:25;;;;;;;6.47;5.80;;;;;;;21.63;48.35;156926.28;5056308;28;20561;-80
2022/06/16 00:43:53;;;;;;;5.97;5.50;;;;;;;21.61;47.99;156921.00;5051551;28;20833;-79
2022/06/16 00:46:20;;;;;;;6.23;5.73;;;;;;;21.61;48.22;156921.00;5051091;28;20454;-79
2022/06/16 00:48:50;;;;;;;6.03;5.53;;;;;;;21.58;48.09;156913.16;5034340;28;20454;-80
2022/06/16 00:51:21;;;;;;;5.67;5.07;;;;;;;21.55;47.93;156906.66;5050622;28;20941;-78
2022/06/16 00:53:48;;;;;;;5.70;5.17;;;;;;;21.56;48.08;156909.28;5069862;28;20454;-78
2022/06/16 00:56:17;;;;;;;5.60;5.07;;;;;;;21.52;47.09;156898.84;5053770;28;20434;-80
2022/06/16 00:58:46;;;;;;;5.73;4.90;;;;;;;21.52;48.33;156897.53;5102685;28;20503;-78
2022/06/16 01:01:15;;;;;;;7.30;5.40;;;;;;;21.56;46.75;156907.97;5103872;28;20430;-78
2022/06/16 01:06:28;;;;;;;5.20;4.80;;;;;;;21.50;46.37;156893.59;5053644;28;20441;-78
2022/06/16 01:09:00;;;;;;;5.23;4.73;;;;;;;21.46;47.00;156883.19;5103091;28;20446;-78
2022/06/16 01:14:26;;;;;;;6.07;5.67;;;;;;;21.41;46.64;156870.13;5052675;28;20975;-78
2022/06/16 01:16:56;;;;;;;5.20;4.70;;;;;;;21.35;47.40;156854.44;5056946;28;20449;-78
2022/06/16 01:19:42;;;;;;;5.33;4.83;;;;;;;21.29;47.70;156838.78;5048667;28;20489;-78
2022/06/16 01:22:14;;;;;;;6.20;5.60;;;;;;;21.19;48.78;156812.69;5087182;28;20462;-78
2022/06/16 01:25:05;;;;;;;5.70;5.27;;;;;;;21.08;49.09;156783.97;5050224;28;20921;-78
2022/06/16 01:27:58;;;;;;;5.47;4.97;;;;;;;21.06;48.67;156778.69;5030508;28;20435;-78
2022/06/16 01:30:32;;;;;;;5.80;5.30;;;;;;;21.00;48.54;156763.03;5067386;28;20488;-78
2022/06/16 01:33:03;;;;;;;6.30;5.70;;;;;;;20.93;49.32;156744.78;5045013;28;20497;-78
2022/06/16 01:35:37;;;;;;;6.10;5.57;;;;;;;20.87;49.04;156730.41;5070400;28;20488;-78
2022/06/16 01:38:10;;;;;;;6.80;5.60;;;;;;;20.83;49.37;156718.69;5053252;28;20442;-78
2022/06/16 01:40:41;;;;;;;6.53;5.80;;;;;;;20.79;49.97;156708.22;5069796;28;20437;-78
2022/06/16 01:43:13;;;;;;;6.40;5.80;;;;;;;20.76;50.00;156700.44;5052497;28;20469;-78
2022/06/16 01:45:46;;;;;;;6.77;6.13;;;;;;;20.67;50.38;156676.94;5069882;28;20446;-78
2022/06/16 01:48:18;;;;;;;6.00;5.47;;;;;;;20.62;50.90;156666.47;5069384;28;20437;-78
2022/06/16 01:50:50;;;;;;;6.87;5.43;;;;;;;20.58;50.79;156656.06;5062083;28;20447;-78
2022/06/16 01:53:19;;;;;;;7.07;6.47;;;;;;;20.54;51.74;156645.59;5070312;28;20426;-78
2022/06/16 01:55:52;;;;;;;6.60;5.93;;;;;;;20.46;52.12;156624.78;5069901;28;20449;-78
2022/06/16 01:58:22;;;;;;;6.60;6.00;;;;;;;20.43;52.24;156616.94;5053183;28;20437;-78
2022/06/16 02:00:52;;;;;;;6.40;5.80;;;;;;;20.39;52.37;156605.16;5041969;28;20451;-78
2022/06/16 02:03:23;;;;;;;9.70;6.30;;;;;;;20.35;52.38;156596.06;5051348;28;20805;-78
2022/06/16 02:05:53;;;;;;;7.20;6.60;;;;;;;20.33;52.06;156590.81;5051411;28;20447;-78
2022/06/16 02:08:22;;;;;;;6.63;6.03;;;;;;;20.29;52.08;156580.41;5063473;28;20454;-78
2022/06/16 02:10:52;;;;;;;6.47;5.97;;;;;;;20.25;52.39;156568.69;5086198;28;21003;-78
2022/06/16 02:13:25;;;;;;;6.90;6.30;;;;;;;20.19;52.76;156552.97;5086450;28;20426;-78
2022/06/16 02:15:58;;;;;;;6.27;5.77;;;;;;;20.13;52.68;156538.63;5086692;28;20791;-78
2022/06/16 02:18:27;;;;;;;6.73;6.13;;;;;;;20.09;53.13;156528.22;5051186;28;20442;-78
2022/06/16 02:20:58;;;;;;;10.00;5.90;;;;;;;20.05;52.90;156519.06;5070276;28;20419;-78
2022/06/16 02:23:25;;;;;;;6.43;5.83;;;;;;;20.00;53.79;156506.03;5052156;28;20462;-78
2022/06/16 02:26:12;;;;;;;6.97;6.30;;;;;;;19.96;53.62;156494.31;5047592;28;20955;-78
2022/06/16 02:28:44;;;;;;;6.90;6.30;;;;;;;19.95;53.76;156493.00;5053114;28;20442;-78
2022/06/16 02:31:33;;;;;;;7.63;6.93;;;;;;;19.91;54.48;156481.22;5052656;28;20449;-78
2022/06/16 02:34:08;;;;;;;7.20;6.60;;;;;;;19.84;55.11;156464.31;5061008;28;20449;-78
2022/06/16 02:36:54;;;;;;;7.70;6.90;;;;;;;19.80;55.56;156452.59;5055757;28;20443;-78
2022/06/16 02:39:31;;;;;;;7.47;6.67;;;;;;;19.77;55.88;156444.75;5054107;28;20492;-78
2022/06/16 02:42:04;;;;;;;8.10;7.40;;;;;;;19.73;56.55;156435.59;5036818;28;20857;-78
2022/06/16 02:44:37;;;;;;;7.70;7.10;;;;;;;19.68;57.19;156422.56;5036155;28;20565;-78
2022/06/16 02:47:13;;;;;;;7.80;7.20;;;;;;;19.66;57.45;156417.38;5054215;28;20813;-78
2022/06/16 02:49:46;;;;;;;8.43;7.40;;;;;;;19.63;57.93;156409.53;5079921;28;20446;-78
2022/06/16 02:52:20;;;;;;;8.67;7.97;;;;;;;19.51;58.83;156376.97;5088766;28;20441;-78
2022/06/16 02:54:54;;;;;;;9.43;7.93;;;;;;;19.48;59.16;156370.44;5089585;28;20536;-78
2022/06/16 02:57:26;;;;;;;8.03;7.23;;;;;;;19.43;58.92;156358.69;5089922;28;20450;-78
2022/06/16 02:59:58;;;;;;;8.17;7.47;;;;;;;19.42;59.52;156356.09;5052332;28;20453;-78
2022/06/16 03:02:28;;;;;;;8.20;7.47;;;;;;;19.40;59.10;156350.91;5035911;28;20442;-78
2022/06/16 03:04:57;;;;;;;8.63;7.93;;;;;;;19.38;58.96;156345.66;5085753;28;20946;-78
2022/06/16 03:07:25;;;;;;;7.90;7.20;;;;;;;19.35;60.10;156337.78;5069281;28;20837;-78
2022/06/16 03:10:50;;;;;;;8.10;7.40;;;;;;;19.22;60.61;156303.88;5068906;28;20985;-78
2022/06/16 03:13:07;;;;;;;9.50;7.70;;;;;;;19.24;61.00;156307.84;5040839;28;20499;-78
2022/06/16 03:15:34;;;;;;;8.10;7.40;;;;;;;19.21;61.53;156300.00;5054132;28;20922;-78
2022/06/16 03:18:03;;;;;;;8.77;8.03;;;;;;;19.19;61.95;156296.13;5067062;28;20507;-78
2022/06/16 03:20:29;;;;;;;9.27;8.37;;;;;;;19.15;62.40;156284.34;5055170;28;20477;-77
2022/06/16 03:22:56;;;;;;;9.50;8.60;;;;;;;19.09;62.83;156268.75;5068772;28;20505;-77
2022/06/16 03:25:23;;;;;;;9.90;8.13;;;;;;;19.10;63.05;156272.63;5052933;28;20485;-78
2022/06/16 03:27:50;;;;;;;8.80;8.10;;;;;;;19.09;62.78;156270.00;5069447;28;20533;-77
2022/06/16 03:30:18;;;;;;;8.90;8.17;;;;;;;19.11;62.94;156273.94;5067929;28;20990;-78
2022/06/16 03:32:45;;;;;;;8.00;7.30;;;;;;;19.12;62.75;156277.84;5054451;28;20550;-77
2022/06/16 03:35:14;;;;;;;8.80;8.00;;;;;;;19.14;61.81;156281.78;5044395;28;20443;-78
2022/06/16 03:37:41;;;;;;;8.47;7.80;;;;;;;19.19;62.30;156296.13;5035471;28;20541;-77
2022/06/16 03:40:11;;;;;;;8.60;7.80;;;;;;;19.19;61.67;156294.81;5035531;28;20803;-78
2022/06/16 03:42:38;;;;;;;7.90;7.17;;;;;;;19.16;62.80;156288.28;5052502;28;20415;-78
2022/06/16 03:45:06;;;;;;;8.80;8.00;;;;;;;19.16;63.02;156286.97;5085872;28;20435;-77
2022/06/16 03:47:33;;;;;;;8.40;7.70;;;;;;;19.15;62.94;156285.66;5045147;28;21049;-77
2022/06/16 03:50:01;;;;;;;9.33;8.43;;;;;;;19.15;63.32;156285.66;5075559;28;20451;-77
2022/06/16 03:52:39;;;;;;;8.47;7.67;;;;;;;19.16;63.15;156286.97;5053320;28;20443;-77
2022/06/16 03:55:07;;;;;;;8.60;7.90;;;;;;;19.15;62.45;156284.34;5052340;28;20442;-77
2022/06/16 03:57:34;;;;;;;8.80;8.00;;;;;;;19.15;61.81;156285.66;5054127;28;20427;-77
2022/06/16 04:00:01;;;;;;;8.50;7.70;;;;;;;19.26;62.16;156314.34;5035797;28;20467;-77
2022/06/16 04:02:46;;;;;;;10.80;8.00;;;;;;;19.29;62.56;156320.84;5085143;28;20831;-77
2022/06/16 04:05:20;;;;;;;9.27;8.00;;;;;;;19.36;63.18;156340.41;5046795;28;20455;-77
2022/06/16 04:07:55;;;;;;;8.10;7.30;;;;;;;19.45;63.05;156362.63;5054518;28;20853;-78
2022/06/16 04:10:26;;;;;;;8.60;7.80;;;;;;;19.67;62.23;156418.69;5054261;28;20460;-77
2022/06/16 04:12:54;;;;;;;11.63;7.67;;;;;;;19.89;61.21;156476.03;5070915;28;20917;-78
2022/06/16 04:15:29;;;;;;;8.43;7.73;;;;;;;20.10;59.80;156529.47;5064539;28;20992;-79
2022/06/16 04:17:58;;;;;;;7.90;7.30;;;;;;;20.26;58.83;156572.56;5079607;28;20446;-78
2022/06/16 04:20:30;;;;;;;7.73;7.10;;;;;;;20.42;58.19;156614.31;5068549;28;21043;-78
2022/06/16 04:23:14;;;;;;;8.90;7.33;;;;;;;20.54;57.20;156645.59;5055462;28;20479;-78
2022/06/16 04:25:43;;;;;;;7.60;7.00;;;;;;;20.65;56.88;156674.31;5034264;28;20546;-78
2022/06/16 04:28:19;;;;;;;7.20;6.60;;;;;;;20.76;55.87;156700.44;5052713;28;20415;-78
2022/06/16 04:30:53;;;;;;;6.90;6.30;;;;;;;20.73;55.48;156692.63;5034031;28;20442;-78
2022/06/16 04:33:24;;;;;;;7.20;6.60;;;;;;;20.77;55.14;156703.03;5056493;28;20446;-78
2022/06/16 04:35:52;;;;;;;6.80;6.30;;;;;;;20.85;53.80;156723.91;5070937;28;20496;-78
2022/06/16 04:38:26;;;;;;;7.43;6.30;;;;;;;21.10;54.16;156790.50;5053070;28;20434;-78
2022/06/16 04:40:55;;;;;;;6.53;6.03;;;;;;;21.31;53.69;156842.72;5077509;28;20457;-78
2022/06/16 04:43:22;;;;;;;6.17;5.73;;;;;;;21.27;54.12;156833.56;5050328;28;20511;-78
2022/06/16 04:45:55;;;;;;;7.13;6.63;;;;;;;21.23;53.92;156823.16;5050620;28;20526;-78
2022/06/16 04:48:25;;;;;;;6.07;5.47;;;;;;;21.02;53.46;156769.56;5050155;28;20439;-78
2022/06/16 04:50:52;;;;;;;7.10;6.50;;;;;;;20.84;53.98;156722.59;5067399;28;20795;-78
2022/06/16 04:53:24;;;;;;;6.70;6.10;;;;;;;20.81;54.22;156713.47;5053711;28;20462;-77
2022/06/16 04:56:05;;;;;;;6.90;6.30;;;;;;;20.78;53.48;156706.97;5053560;28;20450;-78
2022/06/16 04:58:42;;;;;;;6.37;5.87;;;;;;;20.77;53.78;156704.34;5065893;28;20458;-78
2022/06/16 05:01:38;;;;;;;6.00;5.50;;;;;;;20.82;52.50;156716.06;5071058;28;20908;-78
2022/06/16 05:04:05;;;;;;;5.70;5.30;;;;;;;20.79;52.46;156709.53;5103921;28;20484;-78
2022/06/16 05:07:07;;;;;;;5.67;5.17;;;;;;;20.77;52.57;156703.03;5044245;28;20451;-78
2022/06/16 05:09:56;;;;;;;5.87;5.27;;;;;;;20.77;52.28;156703.03;5048389;28;20447;-78
2022/06/16 05:12:36;;;;;;;6.20;5.60;;;;;;;20.85;52.57;156723.91;5050797;28;20813;-78
2022/06/16 05:15:29;;;;;;;6.50;5.90;;;;;;;21.03;51.86;156772.19;5065727;28;20445;-78
2022/06/16 05:18:15;;;;;;;6.93;6.23;;;;;;;21.10;51.30;156790.50;5070038;28;20426;-78
2022/06/16 05:21:20;;;;;;;6.33;5.83;;;;;;;21.10;51.31;156789.22;5028941;28;20934;-78
2022/06/16 05:24:01;;;;;;;6.43;5.93;;;;;;;21.21;51.13;156817.91;4998006;28;20488;-78
2022/06/16 05:26:52;;;;;;;7.73;7.10;;;;;;;21.63;55.68;156926.28;5053351;28;20846;-78
2022/06/16 05:29:51;;;;;;;8.40;7.53;;;;;;;21.87;56.59;156987.69;5081714;28;20451;-78
2022/06/16 05:32:21;;;;;;;9.40;8.60;;;;;;;22.11;57.42;157050.31;5066485;28;20532;-78
2022/06/16 05:35:25;;;;;;;9.03;8.23;;;;;;;22.47;55.73;157144.38;5068079;28;20465;-78
2022/06/16 05:38:12;;;;;;;9.50;8.70;;;;;;;22.09;55.73;157045.09;5070763;28;20437;-78
2022/06/16 05:40:45;;;;;;;7.40;6.70;;;;;;;22.16;52.63;157063.41;5068865;28;20434;-78
2022/06/16 05:43:22;;;;;;;8.40;7.17;;;;;;;22.72;54.21;157208.41;5103642;28;20929;-78
2022/06/16 05:46:23;;;;;;;7.47;6.80;;;;;;;23.02;49.00;157288.16;5081048;28;20447;-79
2022/06/16 05:48:57;;;;;;;7.10;6.60;;;;;;;22.88;49.38;157251.53;5068557;28;20456;-79
2022/06/16 05:51:24;;;;;;;7.50;6.80;;;;;;;23.11;49.30;157309.06;5099096;28;20841;-78
2022/06/16 05:53:59;;;;;;;7.33;6.57;;;;;;;23.32;48.04;157363.94;5066628;28;20485;-78
2022/06/16 05:56:30;;;;;;;6.63;6.00;;;;;;;23.42;48.03;157390.13;5049918;28;20782;-79
2022/06/16 05:58:58;;;;;;;7.37;6.77;;;;;;;23.59;48.29;157434.53;5052405;28;20439;-78
2022/06/16 06:01:27;;;;;;;6.83;5.90;;;;;;;23.88;47.22;157510.38;5050189;28;20539;-76
2022/06/16 06:04:01;;;;;;;6.40;5.80;;;;;;;24.33;47.15;157625.53;5070808;28;20607;-75
2022/06/16 06:06:28;;;;;;;6.57;6.03;;;;;;;24.61;46.18;157700.06;5054639;28;20443;-74
2022/06/16 06:17:18;;;;;;;6.60;6.00;;;;;;;23.98;47.41;157536.56;5068162;28;20422;-74
2022/06/16 06:19:48;;;;;;;6.60;6.10;;;;;;;23.86;48.09;157505.16;5069830;28;20545;-74
2022/06/16 06:22:19;;;;;;;7.87;7.17;;;;;;;24.16;49.30;157583.69;5053181;28;20419;-74
2022/06/16 06:24:48;;;;;;;7.80;7.10;;;;;;;24.44;49.13;157655.56;5048529;28;20470;-74
2022/06/16 06:27:21;;;;;;;6.77;6.27;;;;;;;24.77;48.48;157741.94;5053736;28;20431;-75
2022/06/16 06:29:50;;;;;;;6.73;6.23;;;;;;;25.12;44.28;157832.28;5036386;28;20446;-75
2022/06/16 06:32:19;;;;;;;9.23;6.10;;;;;;;25.61;44.19;157957.94;5060371;28;20883;-75
2022/06/16 06:34:46;;;;;;;7.43;6.23;;;;;;;25.64;41.75;157965.78;5074921;28;20477;-75
2022/06/16 06:37:19;;;;;;;6.60;6.20;;;;;;;25.51;41.33;157931.75;5072427;28;20856;-75
2022/06/16 06:39:46;;;;;;;6.10;5.60;;;;;;;25.74;42.03;157991.97;5054634;28;21006;-76
2022/06/16 06:42:13;;;;;;;6.90;6.20;;;;;;;26.35;43.16;158151.75;5074115;28;20450;-75
2022/06/16 06:44:42;;;;;;;6.50;5.70;;;;;;;26.77;41.72;158260.50;5072730;28;20582;-75
2022/06/16 06:47:12;;;;;;;6.33;5.83;;;;;;;27.10;40.04;158347.00;5090976;28;20435;-76
2022/06/16 06:49:39;;;;;;;6.00;5.60;;;;;;;27.57;39.67;158468.91;5053624;28;20443;-76
2022/06/16 06:52:06;;;;;;;6.87;6.33;;;;;;;27.81;40.08;158530.50;5072631;28;20426;-76
2022/06/16 06:54:33;;;;;;;7.33;6.60;;;;;;;27.77;40.61;158520.03;5073554;28;20507;-76
2022/06/16 06:57:00;;;;;;;7.40;6.90;;;;;;;27.62;41.50;158482.00;5068738;28;20477;-76
2022/06/16 06:59:27;;;;;;;7.53;6.83;;;;;;;27.92;40.89;158558.03;5074301;28;20749;-76
2022/06/16 07:01:53;;;;;;;6.60;6.10;;;;;;;28.23;40.10;158639.34;5106250;28;20480;-76
2022/06/16 07:04:21;;;;;;;8.27;6.73;;;;;;;28.17;40.01;158623.66;5074085;28;20565;-76
2022/06/16 07:06:49;;;;;;;6.70;6.10;;;;;;;28.13;40.19;158613.13;5072002;28;20446;-76
2022/06/16 07:09:17;;;;;;;7.30;6.50;;;;;;;27.84;41.24;158537.03;5090002;28;20449;-76
2022/06/16 07:11:45;;;;;;;6.20;5.80;;;;;;;27.66;42.73;158492.50;5095340;28;20443;-75
2022/06/16 07:14:12;;;;;;;6.93;6.43;;;;;;;27.43;43.31;158432.19;5071931;28;20449;-75
2022/06/16 07:16:39;;;;;;;7.00;6.50;;;;;;;27.39;42.45;158421.69;5073329;28;20901;-75
2022/06/16 07:19:06;;;;;;;6.87;6.37;;;;;;;27.12;42.68;158350.91;5073329;28;20473;-75
2022/06/16 07:21:34;;;;;;;6.70;6.20;;;;;;;27.44;42.51;158434.81;5071885;28;20442;-75
2022/06/16 07:24:01;;;;;;;6.43;5.93;;;;;;;27.90;40.91;158552.78;5058908;28;20455;-75
2022/06/16 07:26:28;;;;;;;7.13;6.53;;;;;;;28.33;40.35;158665.56;5052174;28;20776;-75
2022/06/16 07:28:57;;;;;;;7.90;6.90;;;;;;;28.34;40.11;158668.19;5062386;28;20452;-75
2022/06/16 07:31:23;;;;;;;7.87;7.27;;;;;;;27.16;42.51;158361.41;5067754;28;20465;-75
2022/06/16 07:33:50;;;;;;;7.37;6.77;;;;;;;27.00;42.81;158319.47;5060437;28;20507;-75
2022/06/16 07:36:17;;;;;;;8.10;7.40;;;;;;;27.12;43.96;158352.22;5073385;28;20484;-75
2022/06/16 07:38:46;;;;;;;8.53;7.73;;;;;;;27.62;43.85;158482.00;5071811;28;20486;-75
2022/06/16 07:43:57;;;;;;;8.60;7.90;;;;;;;27.86;43.19;158542.28;5051578;28;20469;-75
2022/06/16 07:46:24;;;;;;;8.20;7.40;;;;;;;27.47;42.91;158442.69;5061415;28;20490;-75
2022/06/16 07:48:52;;;;;;;7.97;7.33;;;;;;;27.18;43.71;158366.63;5052906;28;20941;-75
2022/06/16 07:51:18;;;;;;;8.20;7.50;;;;;;;27.51;43.78;158453.16;5102826;28;20449;-75
2022/06/16 07:53:47;;;;;;;8.47;7.77;;;;;;;27.36;43.82;158412.50;5105441;28;20437;-75
2022/06/16 07:56:14;;;;;;;8.93;8.13;;;;;;;27.49;42.29;158447.94;5072733;28;20823;-75
2022/06/16 07:58:43;;;;;;;7.73;7.20;;;;;;;27.57;42.04;158468.91;5054988;28;20533;-75
2022/06/16 08:01:11;;;;;;;7.53;6.93;;;;;;;27.66;41.31;158491.19;5084482;28;20434;-75
2022/06/16 08:03:38;;;;;;;7.73;7.13;;;;;;;28.00;40.65;158580.31;5065941;28;20457;-75
2022/06/16 08:06:08;;;;;;;7.87;7.27;;;;;;;28.09;40.11;158603.94;5068714;28;20458;-75
2022/06/16 08:08:35;;;;;;;8.03;7.20;;;;;;;28.54;40.21;158720.63;5073147;28;20426;-75
2022/06/16 08:11:03;;;;;;;8.00;7.20;;;;;;;28.76;39.61;158778.41;5068760;28;20513;-75
2022/06/16 08:13:29;;;;;;;7.47;6.77;;;;;;;29.15;38.83;158878.13;5084690;28;20538;-75
2022/06/16 08:15:56;;;;;;;7.70;7.10;;;;;;;28.94;39.14;158825.59;5070848;28;20466;-75
2022/06/16 08:18:25;;;;;;;8.27;7.67;;;;;;;28.86;39.39;158804.63;5069945;28;20959;-75
2022/06/16 08:20:52;;;;;;;9.00;8.10;;;;;;;28.74;39.76;158773.16;5060158;28;20968;-75
2022/06/16 08:23:19;;;;;;;7.90;7.17;;;;;;;28.72;41.32;158766.59;5104878;28;20444;-77
2022/06/16 08:25:47;;;;;;;9.00;8.20;;;;;;;29.04;40.24;158850.56;5071322;28;20508;-75
2022/06/16 08:28:16;;;;;;;8.50;7.77;;;;;;;29.61;39.69;158998.84;5071998;28;20545;-75
2022/06/16 08:30:46;;;;;;;8.40;7.60;;;;;;;29.62;39.84;159001.50;5066553;28;20458;-75
2022/06/16 08:33:15;;;;;;;7.70;7.20;;;;;;;29.70;39.86;159022.47;5052650;28;20450;-75
2022/06/16 08:35:42;;;;;;;8.77;7.73;;;;;;;30.00;39.06;159101.25;5086710;28;20442;-75
2022/06/16 08:38:09;;;;;;;8.67;7.97;;;;;;;30.21;38.55;159153.78;5063452;28;20439;-75
2022/06/16 08:40:37;;;;;;;8.50;7.90;;;;;;;30.13;38.52;159135.38;5050653;28;20439;-75
2022/06/16 08:43:07;;;;;;;8.43;7.83;;;;;;;30.07;38.39;159118.34;5051528;28;20431;-78
2022/06/16 08:45:37;;;;;;;8.23;7.37;;;;;;;30.59;37.51;159253.59;5050784;28;20570;-75
2022/06/16 08:48:18;;;;;;;7.67;7.07;;;;;;;31.01;36.78;159363.94;5051943;28;20542;-75
2022/06/16 08:50:50;;;;;;;8.17;7.57;;;;;;;31.04;36.77;159371.81;5069430;28;20910;-75
2022/06/16 08:53:29;;;;;;;7.67;7.00;;;;;;;30.89;36.95;159332.38;5095369;28;20450;-75
2022/06/16 08:56:00;;;;;;;6.90;6.40;;;;;;;30.91;37.18;159336.31;5050287;28;20466;-76
2022/06/16 08:58:33;;;;;;;8.33;7.07;;;;;;;31.30;34.95;159440.13;5051645;28;20445;-75
2022/06/16 09:01:07;;;;;;;6.70;6.10;;;;;;;31.37;34.70;159457.22;5050058;28;20439;-76
2022/06/16 09:03:39;;;;;;;7.07;6.50;;;;;;;31.49;34.43;159487.44;5051715;28;20435;-76
2022/06/16 09:06:14;;;;;;;6.57;6.17;;;;;;;31.65;33.58;159529.50;5052575;28;20458;-76
2022/06/16 09:08:46;;;;;;;7.70;7.10;;;;;;;31.62;33.79;159521.59;5083806;28;20481;-76
2022/06/16 09:11:18;;;;;;;6.90;6.40;;;;;;;31.76;33.82;159559.72;5095676;28;20441;-76
2022/06/16 09:14:10;;;;;;;7.47;6.87;;;;;;;31.97;33.80;159613.59;5071254;28;20442;-75
2022/06/16 09:16:47;;;;;;;8.60;6.63;;;;;;;32.25;32.94;159687.22;5066783;28;20860;-76
2022/06/16 09:19:39;;;;;;;7.43;6.57;;;;;;;31.83;33.57;159578.09;5071399;28;20530;-76
2022/06/16 09:22:15;;;;;;;6.67;6.17;;;;;;;31.11;33.68;159390.19;5099098;28;20442;-76
2022/06/16 09:24:54;;;;;;;6.03;5.63;;;;;;;31.04;35.56;159370.50;5084408;28;20916;-76
2022/06/16 09:27:25;;;;;;;7.00;6.50;;;;;;;31.66;32.63;159532.16;5056819;28;20445;-76
2022/06/16 09:29:57;;;;;;;6.10;5.60;;;;;;;31.22;32.59;159419.09;5051908;28;20447;-76
2022/06/16 09:32:31;;;;;;;6.53;5.93;;;;;;;31.70;33.79;159542.63;5066221;28;20817;-75
2022/06/16 09:35:02;;;;;;;6.40;5.90;;;;;;;31.73;34.17;159550.53;5068114;28;20441;-75
2022/06/16 09:37:35;;;;;;;5.80;5.40;;;;;;;32.03;33.50;159629.44;5075257;28;20889;-75
2022/06/16 09:40:08;;;;;;;7.23;6.63;;;;;;;31.72;33.82;159547.91;5075114;28;20453;-76
2022/06/16 09:42:39;;;;;;;8.43;7.73;;;;;;;31.29;34.44;159437.53;5107674;28;20466;-76
2022/06/16 09:45:12;;;;;;;6.70;6.20;;;;;;;31.22;34.82;159419.09;5070017;28;20800;-76
2022/06/16 09:47:46;;;;;;;7.40;6.80;;;;;;;31.40;34.09;159463.78;5075394;28;20420;-76
2022/06/16 09:50:19;;;;;;;7.53;6.83;;;;;;;30.58;35.91;159251.00;5055772;28;20469;-75
2022/06/16 09:52:51;;;;;;;6.50;5.90;;;;;;;30.99;35.82;159357.38;5070304;28;20434;-76
2022/06/16 09:55:22;;;;;;;7.80;7.30;;;;;;;30.52;36.60;159236.53;5088384;28;20449;-75
2022/06/16 09:57:53;;;;;;;7.33;6.83;;;;;;;30.64;36.43;159268.03;5055504;28;20804;-75
2022/06/16 10:00:22;;;;;;;8.30;6.30;;;;;;;30.54;36.50;159240.47;5056033;28;20783;-76
2022/06/16 10:02:53;;;;;;;8.40;7.67;;;;;;;30.52;36.80;159235.22;5057831;28;20817;-75
2022/06/16 10:05:31;;;;;;;7.97;7.10;;;;;;;29.74;38.16;159031.63;5055436;28;20488;-76
2022/06/16 10:08:02;;;;;;;7.50;6.93;;;;;;;29.79;38.58;159044.81;5055194;28;20415;-77
2022/06/16 10:10:33;;;;;;;8.50;7.80;;;;;;;29.01;39.75;158841.38;5055415;28;20438;-77
2022/06/16 10:13:04;;;;;;;7.90;7.20;;;;;;;29.38;39.14;158938.50;5063222;28;20783;-78
2022/06/16 10:15:38;;;;;;;7.27;6.67;;;;;;;29.84;38.19;159059.25;5107902;27;20519;-76
2022/06/16 10:18:07;;;;;;;7.80;7.20;;;;;;;29.65;39.57;159009.38;5081205;28;20434;-77
2022/06/16 10:20:34;;;;;;;7.73;7.13;;;;;;;30.11;38.62;159130.13;5074391;28;21079;-75
2022/06/16 10:23:05;;;;;;;9.57;7.50;;;;;;;29.84;37.94;159057.97;5074294;28;20426;-77
2022/06/16 10:25:36;;;;;;;8.83;8.00;;;;;;;29.52;38.20;158975.25;5073487;28;20498;-75
2022/06/16 10:28:17;;;;;;;7.23;6.53;;;;;;;29.39;39.04;158942.41;5074733;28;20561;-75
2022/06/16 10:30:43;;;;;;;7.70;7.10;;;;;;;28.94;40.74;158825.59;5064120;28;20439;-77
2022/06/16 10:33:15;;;;;;;7.77;7.17;;;;;;;28.76;40.65;158778.41;5088714;28;20438;-77
2022/06/16 10:35:47;;;;;;;7.93;7.23;;;;;;;28.54;39.98;158720.63;5070497;28;20537;-75
2022/06/16 10:38:21;;;;;;;7.63;7.03;;;;;;;28.71;40.45;158765.28;5106750;28;20487;-77
2022/06/16 10:40:48;;;;;;;7.33;6.73;;;;;;;28.92;39.96;158820.38;5072709;28;20974;-77
2022/06/16 10:43:17;;;;;;;8.40;7.60;;;;;;;29.02;40.79;158844.00;5082119;28;20440;-77
2022/06/16 10:45:55;;;;;;;9.63;7.40;;;;;;;28.56;41.80;158725.91;5076156;28;20503;-77
2022/06/16 10:48:29;;;;;;;8.63;7.90;;;;;;;28.11;41.55;158607.91;5067296;28;20857;-74
2022/06/16 10:51:07;;;;;;;7.23;6.63;;;;;;;28.18;42.12;158626.22;5053958;28;20447;-75
2022/06/16 10:53:38;;;;;;;7.67;7.10;;;;;;;28.55;41.55;158723.28;5056998;28;20505;-75
2022/06/16 10:56:10;;;;;;;7.60;6.90;;;;;;;28.58;40.90;158729.81;5052755;28;20471;-75
2022/06/16 10:58:46;;;;;;;8.47;7.87;;;;;;;28.90;40.70;158815.13;5052426;28;20946;-77
2022/06/16 11:01:16;;;;;;;8.50;7.80;;;;;;;28.62;41.24;158740.41;5052479;28;20523;-77
2022/06/16 11:03:47;;;;;;;7.70;7.10;;;;;;;28.49;41.72;158707.53;5053897;28;20863;-77
2022/06/16 11:06:15;;;;;;;8.97;7.33;;;;;;;28.24;41.04;158641.97;5069239;28;20459;-75
2022/06/16 11:08:46;;;;;;;7.57;7.07;;;;;;;28.19;41.52;158628.88;5086695;28;20450;-76
2022/06/16 11:11:18;;;;;;;8.10;7.50;;;;;;;28.13;41.08;158613.13;5035417;28;20435;-74
2022/06/16 11:13:47;;;;;;;7.93;7.33;;;;;;;28.31;42.16;158661.63;5101002;28;20587;-74
2022/06/16 11:16:25;;;;;;;8.00;7.30;;;;;;;28.18;42.32;158626.22;5072232;28;20430;-76
2022/06/16 11:18:54;;;;;;;6.77;6.17;;;;;;;28.55;41.34;158723.28;5073218;28;20461;-75
2022/06/16 11:21:23;;;;;;;7.50;6.30;;;;;;;28.64;40.68;158745.63;5066797;28;20951;-74
2022/06/16 11:23:51;;;;;;;8.20;7.50;;;;;;;28.26;41.12;158648.53;5051765;28;20980;-74
2022/06/16 11:26:24;;;;;;;7.67;6.97;;;;;;;28.01;41.02;158582.91;5067278;28;20481;-77
2022/06/16 11:28:53;;;;;;;8.27;7.67;;;;;;;28.30;40.39;158657.72;5073422;28;20975;-76
2022/06/16 11:31:23;;;;;;;8.87;8.17;;;;;;;27.97;40.79;158571.13;5054009;28;20446;-76
2022/06/16 11:34:09;;;;;;;7.40;6.80;;;;;;;28.12;40.40;158610.50;5038662;28;20450;-77
2022/06/16 11:37:01;;;;;;;7.50;6.90;;;;;;;28.17;40.89;158623.66;5053536;28;20453;-76
2022/06/16 11:39:40;;;;;;;7.37;6.67;;;;;;;28.24;40.85;158643.31;5054091;28;20442;-76
2022/06/16 11:42:16;;;;;;;7.80;7.23;;;;;;;28.52;40.04;158715.41;5096554;28;20540;-77
2022/06/16 11:44:51;;;;;;;8.40;7.70;;;;;;;28.45;40.16;158697.06;5085158;28;20442;-76
2022/06/16 11:47:27;;;;;;;8.67;7.90;;;;;;;28.45;41.10;158697.06;5085124;28;20561;-76
2022/06/16 11:50:00;;;;;;;7.87;7.17;;;;;;;28.42;41.05;158687.84;5059042;28;20533;-76
2022/06/16 11:52:32;;;;;;;8.03;7.43;;;;;;;27.91;40.92;158555.38;5072673;28;20476;-76
2022/06/16 11:55:04;;;;;;;7.97;7.37;;;;;;;27.94;41.33;158564.56;5067313;28;20490;-76
2022/06/16 11:57:35;;;;;;;7.57;6.97;;;;;;;27.98;41.24;158573.75;5053121;28;20422;-76
2022/06/16 12:00:19;;;;;;;8.27;7.57;;;;;;;28.29;41.08;158656.41;5055603;28;20555;-77
2022/06/16 12:03:17;;;;;;;7.97;7.30;;;;;;;28.36;40.65;158673.44;5067952;28;20463;-76
2022/06/16 12:05:48;;;;;;;7.70;7.10;;;;;;;28.36;38.61;158674.75;5084702;28;20466;-77